Latest Coastal Weather Observations for Brisbane Airport

IDQ60701

Issued at 12:51 am EST Wednesday 23 August 2017 (issued every 10 minutes, with the page automatically refreshed every 10 minutes)

About coastal observations | Map of coastal stations | Coastal observations for QLD | Marine services | Other Formats
Station Details ID: 040842 Name: BRISBANE AERO Lat: -27.39 Lon: 153.13 Height: 4.51 m
Data from the previous 72 hours. | See also: Recent months at Brisbane Airport
Date/Time
EST
Temp
°C
Wind Pressure Rain since
9am
mm
Weather Cloud Vis
km
Sea
Height
m
Swell
Dir  Spd
kts
Gust
kts
hPa Trend Height
m
Period
s
Dir
23/12:40am 15.2 W 5 6 1018.7 - 0.2 Fog patches - 10 - - - -
23/12:30am 15.7 NW 5 7 1018.8 - 0.2 Shallow fog - 10 - - - -
23/12:00am 16.1 N 6 15 1018.7 R 0.2 Lightning Mostly clear 25 - - - -
 
Date/Time
EST
Temp
°C
Wind Pressure Rain since
9am
mm
Weather Cloud Vis
km
Sea
Height
m
Swell
Dir  Spd
kts
Gust
kts
hPa Trend Height
m
Period
s
Dir
22/11:30pm 16.7 NNW 3 5 1019.0 - 0.2 Shallow fog Partly cloudy 10 - - - -
22/11:00pm 16.9 N 7 8 1018.9 - 0.2 - Partly cloudy 10 - - - -
22/10:30pm 17.1 NNW 6 8 1018.8 - 0.2 - Partly cloudy 10 - - - -
22/10:00pm 17.5 N 5 6 1018.7 - 0.2 - Partly cloudy 10 - - - -
22/09:30pm 18.1 N 7 9 1018.7 - 0.2 - Partly cloudy 10 - - - -
22/09:00pm 18.5 N 6 8 1018.6 S 0.2 Smoke Partly cloudy 25 - - - -
22/08:30pm 18.7 N 8 10 1018.6 - 0.2 - Partly cloudy 10 - - - -
22/08:00pm 17.7 N 7 7 1018.4 - 0.2 - Partly cloudy 10 - - - -
22/07:30pm 18.8 N 7 12 1018.2 - 0.2 - Partly cloudy 10 - - - -
22/07:00pm 17.8 N 7 9 1018.0 - 0.2 - Partly cloudy 10 - - - -
22/06:30pm 18.7 N 7 15 1017.7 - 0.2 - - 10 - - - -
22/06:00pm 19.2 N 11 15 1017.3 R 0.2 Smoke Mostly clear 20 - - - -
22/05:30pm 19.4 N 11 16 1017.0 - 0.2 - - 10 - - - -
22/05:00pm 19.8 NNE 11 14 1016.6 - 0.2 - - 10 - - - -
22/04:30pm 20.6 NNE 11 15 1016.4 - 0.2 - - 10 - - - -
22/04:00pm 21.4 NNE 12 16 1016.1 - 0.2 - Partly cloudy 10 - - - -
22/03:30pm 21.2 NNE 15 18 1015.9 - 0.2 - Mostly clear 10 - - - -
22/03:00pm 22.1 NNE 14 18 1015.9 F 0.2 Smoke Mostly clear 25 - - - -
22/02:30pm 22.6 NNE 14 17 1016.1 - 0.2 - Mostly clear 10 - - - -
22/02:00pm 22.5 NNE 14 19 1016.3 - 0.2 - Mostly clear 10 - - - -
22/01:30pm 22.8 NNE 13 17 1016.5 - 0.2 - Mostly clear 10 - - - -
22/01:00pm 22.8 NNE 14 17 1016.9 - 0.2 - Mostly clear 10 - - - -
22/12:30pm 23.1 NNE 11 14 1017.3 - 0.2 - Mostly clear 10 - - - -
22/12:00pm 22.0 NNE 8 11 1018.0 F 0.2 Fine Mostly clear 30 - - - -
22/11:30am 22.3 NNE 8 12 1018.6 - 0.2 - Mostly clear 10 - - - -
22/11:00am 21.7 N 9 11 1019.3 - 0.2 - Partly cloudy 10 - - - -
22/10:30am 20.9 NNE 8 10 1019.6 - 0.2 - Mostly clear 10 - - - -
22/10:00am 20.1 NNE 7 9 1019.8 - 0.0 - Mostly clear 10 - - - -
22/09:30am 19.8 N 7 11 1020.0 - 0.0 - Mostly clear 10 - - - -
22/09:00am 19.8 NW 4 7 1020.2 R 0.6 Fine Mostly clear 30 - - - -
22/08:30am 18.3 NW 4 5 1020.3 - 0.6 - Mostly clear 10 - - - -
22/08:00am 17.3 CALM 0 0 1020.1 - 0.6 - Mostly clear 10 - - - -
22/07:30am 15.9 CALM 0 2 1019.7 - 0.6 - Mostly clear 10 - - - -
22/07:00am 13.7 N 1 5 1019.4 - 0.6 - Mostly clear 10 - - - -
22/06:30am 12.3 NW 2 6 1019.3 - 0.6 Shallow fog - 10 - - - -
22/06:00am 11.8 CALM 0 0 1018.8 F 0.6 Fine Partly cloudy 25 - - - -
22/05:30am 13.7 SSW 3 5 1019.1 - 0.6 Shallow fog Partly cloudy 10 - - - -
22/05:00am 13.4 CALM 0 0 1018.9 - 0.6 - Partly cloudy 10 - - - -
22/04:30am 13.7 WNW 1 4 1018.8 - 0.6 Showers Mostly clear 10 - - - -
22/04:00am 13.5 W 1 4 1018.6 - 0.6 - Mostly clear 10 - - - -
22/03:30am 13.9 N 2 5 1018.4 - 0.6 - Mostly clear 10 - - - -
22/03:00am 14.3 CALM 0 0 1018.5 F 0.6 Rain Mostly cloudy 30 - - - -
22/02:30am 14.6 CALM 0 0 1018.8 - 0.6 - Mostly clear 10 - - - -
22/02:00am 14.6 WNW 6 6 1019.1 - 0.6 - Mostly cloudy 10 - - - -
22/01:30am 14.0 CALM 0 0 1018.6 - 0.6 Showers Mostly clear 10 - - - -
22/01:00am 14.3 CALM 0 2 1019.1 - 0.6 - Mostly clear 10 - - - -
22/12:30am 15.2 WSW 5 7 1019.4 - 0.6 - Mostly clear 10 - - - -
22/12:00am 15.4 WNW 1 8 1019.3 S 0.2 Showers Cloudy 12 - - - -
 
Date/Time
EST
Temp
°C
Wind Pressure Rain since
9am
mm
Weather Cloud Vis
km
Sea
Height
m
Swell
Dir  Spd
kts
Gust
kts
hPa Trend Height
m
Period
s
Dir
21/11:30pm 15.1 WSW 5 6 1019.5 - 0.0 Rain - 10 - - - -
21/11:00pm 15.6 WNW 5 7 1019.6 - 0.0 - - 10 - - - -
21/10:30pm 16.0 NW 5 7 1019.1 - 0.0 Rain - 10 - - - -
21/10:00pm 15.1 NNW 3 8 1019.3 - 0.0 - - 10 - - - -
21/09:30pm 15.7 NNW 4 5 1019.2 - 0.0 - - 10 - - - -
21/09:00pm 15.9 NNW 5 5 1019.4 F 0.0 Smoke Partly cloudy 30 - - - -
21/08:30pm 16.5 N 7 8 1019.4 - 0.0 - Partly cloudy 10 - - - -
21/08:00pm 16.3 NNE 8 9 1019.1 - 0.0 - - 10 - - - -
21/07:30pm 16.5 NNE 7 9 1019.0 - 0.0 - - 10 - - - -
21/07:00pm 16.6 NNE 7 9 1019.1 - 0.0 - - 10 - - - -
21/06:30pm 17.4 N 9 13 1018.7 - 0.0 - - 10 - - - -
21/06:00pm 17.4 NNE 10 13 1018.2 F 0.0 Fine Mostly cloudy 30 - - - -
21/05:30pm 17.4 NNE 11 14 1018.0 - 0.0 - Mostly clear 10 - - - -
21/05:00pm 17.5 NNE 10 12 1018.4 - 0.0 - Mostly clear 10 - - - -
21/04:30pm 17.6 NNE 11 13 1018.0 - 0.0 - Mostly clear 10 - - - -
21/04:00pm 18.1 NNE 12 14 1018.3 - 0.0 - Mostly clear 10 - - - -
21/03:30pm 18.3 NE 11 14 1018.2 - 0.0 - Mostly clear 10 - - - -
21/03:00pm 19.1 NNE 11 13 1018.8 F 0.0 Smoke Mostly cloudy 30 - - - -
21/02:30pm 19.0 NNE 10 13 1018.9 - 0.0 - Mostly clear 10 - - - -
21/02:00pm 20.1 NNE 9 12 1019.1 - 0.0 - Mostly clear 10 - - - -
21/01:30pm 19.2 NNE 9 11 1019.4 - 0.0 - Mostly clear 10 - - - -
21/01:00pm 20.4 NE 9 13 1019.6 - 0.0 - Mostly clear 10 - - - -
21/12:30pm 19.7 ENE 8 12 1020.1 - 0.0 - Mostly clear 10 - - - -
21/12:00pm 19.7 E 7 10 1020.8 F 0.0 Fine Partly cloudy 30 - - - -
21/11:30am 20.0 E 6 10 1021.2 - 0.0 - Mostly clear 10 - - - -
21/11:00am 19.2 SE 5 9 1021.6 - 0.0 - Mostly clear 10 - - - -
21/10:30am 18.8 SSE 7 10 1021.9 - 0.0 - Mostly clear 10 - - - -
21/10:00am 17.4 SSW 6 8 1022.3 - 0.0 - Mostly clear 10 - - - -
21/09:30am 16.4 SSW 8 13 1022.6 - 0.0 - Mostly clear 10 - - - -
21/09:00am 15.9 SSW 10 14 1022.5 R 0.0 Fine Partly cloudy 30 - - - -
21/08:30am 13.8 SSW 8 10 1022.2 - 0.0 - - 10 - - - -
21/08:00am 13.0 SSW 8 12 1021.8 - 0.0 - - 10 - - - -
21/07:30am 11.3 SSW 8 9 1021.6 - 0.0 - - 10 - - - -
21/07:00am 9.3 SSW 7 9 1021.4 - 0.0 - - 10 - - - -
21/06:30am 7.4 SSW 8 10 1021.1 - 0.0 - - 10 - - - -
21/06:00am 7.1 SSW 8 9 1020.5 F 0.0 Smoke Mostly clear 25 - - - -
21/05:30am 9.3 SSW 7 8 1020.2 - 0.0 - - 10 - - - -
21/05:00am 8.3 SSW 7 9 1020.0 - 0.0 - - 10 - - - -
21/04:30am 8.2 SSW 7 8 1019.7 - 0.0 - - 10 - - - -
21/04:00am 8.8 SSW 5 5 1019.3 - 0.0 - - 10 - - - -
21/03:30am 9.0 SSW 5 6 1019.6 - 0.0 - - 10 - - - -
21/03:00am 8.6 SW 6 6 1019.8 F 0.0 Smoke Clear 25 - - - -
21/02:30am 8.0 SW 6 7 1019.7 - 0.0 - - 10 - - - -
21/02:00am 8.1 WSW 5 6 1019.8 - 0.0 - - 10 - - - -
21/01:30am 8.9 SSW 4 5 1020.3 - 0.0 - - 10 - - - -
21/01:00am 9.2 CALM 0 0 1020.5 - 0.0 - - 10 - - - -
21/12:30am 8.4 SW 6 7 1020.7 - 0.0 - - 10 - - - -
21/12:00am 10.3 SSW 4 5 1020.9 R 0.0 Smoke Clear 25 - - - -
 
Date/Time
EST
Temp
°C
Wind Pressure Rain since
9am
mm
Weather Cloud Vis
km
Sea
Height
m
Swell
Dir  Spd
kts
Gust
kts
hPa Trend Height
m
Period
s
Dir
20/11:30pm 10.6 SE 2 4 1020.8 - 0.0 - - 10 - - - -
20/11:00pm 11.1 SW 4 5 1020.9 - 0.0 - - 10 - - - -
20/10:30pm 12.8 S 4 4 1020.9 - 0.0 - - 10 - - - -
20/10:00pm 12.9 SSW 5 6 1020.9 - 0.0 - - 10 - - - -
20/09:30pm 13.2 SSW 3 5 1020.9 - 0.0 - - 10 - - - -
20/09:00pm 13.9 SSE 5 6 1020.5 F 0.0 Smoke Clear 30 - - - -
20/08:30pm 15.2 SE 6 9 1020.3 - 0.0 - - 10 - - - -
20/08:00pm 15.2 SSE 7 10 1020.3 - 0.0 - - 10 - - - -
20/07:30pm 15.6 SSE 5 9 1020.3 - 0.0 - - 10 - - - -
20/07:00pm 16.0 SE 5 8 1019.7 - 0.0 - - 10 - - - -
20/06:30pm 16.0 SE 5 7 1019.5 - 0.0 - - 10 - - - -
20/06:00pm 16.3 SE 6 9 1019.3 R 0.0 Smoke Clear 30 - - - -
20/05:30pm 16.5 ESE 6 10 1018.9 - 0.0 - - 10 - - - -
20/05:00pm 17.2 ESE 8 12 1018.7 - 0.0 - - 10 - - - -
20/04:30pm 18.0 ESE 8 13 1018.4 - 0.0 - - 10 - - - -
20/04:00pm 18.3 ESE 9 14 1018.1 - 0.0 - - 10 - - - -
20/03:30pm 18.4 E 9 14 1018.0 - 0.0 - - 10 - - - -
20/03:00pm 18.8 ENE 7 11 1017.8 R 0.0 Smoke Mostly clear 30 - - - -
20/02:30pm 18.6 NE 9 13 1017.8 - 0.0 - - 10 - - - -
20/02:00pm 18.5 NE 12 15 1017.8 - 0.0 - - 10 - - - -
20/01:30pm 19.0 ENE 7 12 1018.0 - 0.0 - - 10 - - - -
20/01:00pm 19.8 SSW 9 14 1018.3 - 0.0 - - 10 - - - -
20/12:30pm 19.1 S 9 19 1018.7 - 0.0 - - 10 - - - -
20/12:00pm 18.5 SW 11 15 1019.2 S 0.0 Smoke Mostly clear 40 - - - -
20/11:30am 17.6 SW 9 15 1019.8 - 0.0 - - 10 - - - -
20/11:00am 17.2 SW 10 18 1020.3 - 0.0 - - 10 - - - -
20/10:30am 16.7 SW 11 17 1020.6 - 0.0 - - 10 - - - -
20/10:00am 15.8 SSW 10 16 1020.7 - 0.0 - - 10 - - - -
20/09:30am 15.4 SSW 13 18 1020.8 - 0.0 - - 10 - - - -
20/09:00am 15.0 SSW 13 18 1020.8 R 0.0 Smoke Clear 40 - - - -
20/08:30am 14.6 SW 14 17 1020.9 - 0.0 - - 10 - - - -
20/08:00am 13.5 SW 10 16 1020.7 - 0.0 - - 10 - - - -
20/07:30am 12.2 SSW 5 7 1020.4 - 0.0 - - 10 - - - -
20/07:00am 9.4 SSW 7 9 1019.9 - 0.0 - - 10 - - - -
20/06:30am 8.9 SSW 5 7 1019.5 - 0.0 - - 10 - - - -
20/06:00am 8.4 SSW 7 8 1019.2 R 0.0 Fine Clear 40 - - - -
20/05:30am 8.1 SSW 6 7 1018.8 - 0.0 - - 10 - - - -
20/05:00am 9.3 SSW 8 10 1018.3 - 0.0 - - 10 - - - -
20/04:30am 9.6 SSW 9 11 1018.0 - 0.0 - - 10 - - - -
20/04:00am 10.3 SSW 9 13 1017.4 - 0.0 - - 10 - - - -
20/03:30am 9.0 SW 8 9 1017.6 - 0.0 - - 10 - - - -
20/03:00am 9.6 SW 11 14 1017.5 R 0.0 Fine Clear 40 - - - -
20/02:30am 7.7 WSW 11 14 1017.5 - 0.0 - - 10 - - - -
20/02:00am 8.8 SW 11 15 1017.8 - 0.0 - - 10 - - - -
20/01:30am 10.7 SW 12 14 1017.8 - 0.0 - - 10 - - - -
20/01:00am 10.8 WSW 11 17 1017.9 - 0.0 - - 10 - - - -

Other Formats:

Comma delimited format used in spreadsheet applications
http://www.bom.gov.au/fwo/IDQ60701/IDQ60701.94578.axf

JavaScript Object Notation format (JSON) in row-major order
http://www.bom.gov.au/fwo/IDQ60701/IDQ60701.94578.json